Terminal Aerodrome Forecast
Issued by NWS

Home | Current Version | Previous Version | Text Only | Print | Product List | Glossary On
Versions: 1 2 3 4 5 6 7 8 9 10 11 12 13 14 15 16
000
FTUS41 KPBZ 231700
TAFLBE
TAF
KLBE 231720Z 2318/2418 24010KT P6SM VCSH SCT022 OVC220
     FM232200 32012KT P6SM BKN025
     FM241500 36008KT P6SM BKN035=

USA.gov is the U.S. government's official web portal to all federal, state and local government web resources and services.